Time;durP1;ratioP1;P1;durP2;ratioP2;P2;SDS_P1;SDS_P2;PMS_P1;PMS_P2;Temp;Humidity;BMP_temperature;BMP_pressure;BME280_temperature;BME280_humidity;BME280_pressure;Samples;Min_cycle;Max_cycle;Signal;HPM_P1;HPM_P2
2024/01/30 00:01:03;;;;;;;23.95;10.30;;;;;;;-1.61;100.00;100937.19;4501156;31;20192;-72
2024/01/30 00:03:31;;;;;;;22.83;8.88;;;;;;;-1.57;100.00;100932.91;4501051;31;20100;-72
2024/01/30 00:05:58;;;;;;;23.12;9.73;;;;;;;-1.53;100.00;100929.44;4501211;31;20093;-72
2024/01/30 00:08:26;;;;;;;21.55;9.57;;;;;;;-1.50;100.00;100929.44;4500831;31;20108;-72
2024/01/30 00:10:53;;;;;;;22.10;8.80;;;;;;;-1.51;100.00;100932.88;4501087;31;20119;-72
2024/01/30 00:13:20;;;;;;;20.67;8.23;;;;;;;-1.50;100.00;100924.28;4501025;31;20422;-72
2024/01/30 00:15:48;;;;;;;20.98;8.75;;;;;;;-1.44;100.00;100926.81;4501133;31;20175;-72
2024/01/30 00:18:16;;;;;;;25.95;9.45;;;;;;;-1.51;100.00;100926.00;4498131;31;20465;-72
2024/01/30 00:20:45;;;;;;;16.27;8.80;;;;;;;-1.57;100.00;100927.78;4484993;31;20093;-72
2024/01/30 00:23:12;;;;;;;20.40;9.07;;;;;;;-1.71;100.00;100935.50;4485376;31;20613;-72
2024/01/30 00:25:39;;;;;;;16.95;8.48;;;;;;;-1.74;100.00;100930.38;4485228;32;20101;-72
2024/01/30 00:28:06;;;;;;;25.73;9.73;;;;;;;-1.72;100.00;100937.25;4483684;32;20145;-72
2024/01/30 00:30:33;;;;;;;23.70;10.30;;;;;;;-1.69;100.00;100939.78;4492074;31;20449;-72
2024/01/30 00:33:00;;;;;;;19.67;8.80;;;;;;;-1.63;100.00;100944.91;4500756;31;20096;-72
2024/01/30 00:35:29;;;;;;;17.08;8.23;;;;;;;-1.56;100.00;100950.91;4500756;31;20186;-72
2024/01/30 00:37:57;;;;;;;23.00;8.20;;;;;;;-1.59;100.00;100952.59;4501043;31;20154;-72
2024/01/30 00:40:24;;;;;;;22.10;9.15;;;;;;;-1.60;100.00;100954.31;4500813;31;20107;-72
2024/01/30 00:42:52;;;;;;;20.77;9.23;;;;;;;-1.62;100.00;100946.63;4500791;31;20092;-72
2024/01/30 00:45:19;;;;;;;22.30;9.95;;;;;;;-1.69;100.00;100951.81;4500823;31;20114;-72
2024/01/30 00:47:46;;;;;;;23.58;9.52;;;;;;;-1.77;100.00;100961.22;4500604;31;20092;-72
2024/01/30 00:50:13;;;;;;;20.73;9.60;;;;;;;-1.65;100.00;100953.47;4501113;31;20088;-72
2024/01/30 00:52:41;;;;;;;19.60;8.82;;;;;;;-1.64;100.00;100953.47;4500799;31;20139;-72
2024/01/30 00:55:09;;;;;;;23.20;10.65;;;;;;;-1.72;100.00;100955.22;4500280;31;20160;-72
2024/01/30 00:57:36;;;;;;;18.52;8.40;;;;;;;-1.89;100.00;100951.84;4500564;31;20096;-72
2024/01/30 01:00:06;;;;;;;24.45;10.23;;;;;;;-1.83;100.00;100947.56;4500694;31;20253;-72
2024/01/30 01:02:37;;;;;;;24.27;10.52;;;;;;;-1.80;100.00;100950.13;4500730;31;20363;-72
2024/01/30 01:05:04;;;;;;;22.35;10.15;;;;;;;-1.81;100.00;100944.97;4500683;31;20076;-72
2024/01/30 01:07:31;;;;;;;22.55;9.18;;;;;;;-1.90;100.00;100945.84;4499167;31;20515;-72
2024/01/30 01:09:59;;;;;;;29.67;9.80;;;;;;;-1.96;100.00;100936.44;4500444;31;20122;-72
2024/01/30 01:12:26;;;;;;;21.17;9.40;;;;;;;-2.06;100.00;100939.94;4500574;31;20112;-72
2024/01/30 01:14:53;;;;;;;21.35;8.90;;;;;;;-2.11;100.00;100938.22;4500545;31;20598;-72
2024/01/30 01:17:20;;;;;;;22.73;9.88;;;;;;;-2.10;100.00;100938.22;4500535;31;20076;-72
2024/01/30 01:19:48;;;;;;;21.17;10.13;;;;;;;-2.17;100.00;100933.94;4487722;31;20393;-72
2024/01/30 01:22:17;;;;;;;21.60;9.07;;;;;;;-2.20;100.00;100931.38;4484649;31;20460;-72
2024/01/30 01:24:45;;;;;;;21.23;9.80;;;;;;;-2.13;100.00;100930.50;4483337;32;20160;-72
2024/01/30 01:27:12;;;;;;;20.37;9.13;;;;;;;-2.33;100.00;100936.53;4484787;31;20108;-72
2024/01/30 01:29:39;;;;;;;25.83;10.07;;;;;;;-2.43;100.00;100927.12;4485512;31;20088;-72
2024/01/30 01:32:06;;;;;;;27.05;10.13;;;;;;;-2.47;100.00;100922.84;4500481;31;20100;-72
2024/01/30 01:34:34;;;;;;;22.42;9.77;;;;;;;-2.42;100.00;100918.59;4500083;31;20125;-72
2024/01/30 01:37:01;;;;;;;21.52;9.43;;;;;;;-2.23;100.00;100923.69;4500489;31;20183;-72
2024/01/30 01:39:29;;;;;;;24.75;9.57;;;;;;;-2.12;100.00;100918.53;4500507;31;20119;-72
2024/01/30 01:41:56;;;;;;;28.00;9.75;;;;;;;-2.13;100.00;100912.53;4500102;31;20114;-72
2024/01/30 01:44:23;;;;;;;26.42;10.00;;;;;;;-2.09;100.00;100914.25;4500323;31;20509;-72
2024/01/30 01:46:51;;;;;;;22.73;9.68;;;;;;;-1.92;100.00;100915.88;4500183;31;20524;-72
2024/01/30 01:49:19;;;;;;;18.70;8.82;;;;;;;-1.90;100.00;100903.91;4498842;31;20111;-72
2024/01/30 01:51:50;;;;;;;21.75;9.27;;;;;;;-1.90;100.00;100914.19;4500384;31;20484;-72
2024/01/30 01:54:18;;;;;;;23.25;9.73;;;;;;;-1.90;100.00;100907.31;4498735;31;20168;-72
2024/01/30 01:56:46;;;;;;;20.73;8.65;;;;;;;-2.02;100.00;100905.66;4500230;31;20092;-72
2024/01/30 01:59:13;;;;;;;26.55;9.93;;;;;;;-2.06;100.00;100898.84;4498775;31;20719;-72
2024/01/30 02:01:41;;;;;;;22.85;9.20;;;;;;;-2.07;100.00;100903.97;4500031;31;20131;-72
2024/01/30 02:04:10;;;;;;;22.45;9.63;;;;;;;-1.94;100.00;100899.62;4499998;31;20092;-72
2024/01/30 02:06:37;;;;;;;22.80;10.82;;;;;;;-1.92;100.00;100908.19;4498827;31;20088;-72
2024/01/30 02:09:09;;;;;;;27.90;9.88;;;;;;;-1.98;100.00;100909.91;4498907;31;20124;-72
2024/01/30 02:11:36;;;;;;;23.42;9.85;;;;;;;-1.96;100.00;100909.91;4500139;31;20104;-72
2024/01/30 02:14:05;;;;;;;21.50;8.43;;;;;;;-2.04;100.00;100909.94;4500139;31;20099;-72
2024/01/30 02:16:32;;;;;;;22.17;8.98;;;;;;;-2.13;100.00;100907.41;4500086;31;20126;-72
2024/01/30 02:18:59;;;;;;;22.95;9.68;;;;;;;-2.21;100.00;100902.28;4492168;31;20153;-72
2024/01/30 02:21:28;;;;;;;19.92;8.68;;;;;;;-2.21;100.00;100901.41;4483872;31;20126;-72
2024/01/30 02:23:56;;;;;;;20.98;8.68;;;;;;;-2.25;100.00;100908.28;4483877;31;20603;-72
2024/01/30 02:26:26;;;;;;;22.42;8.93;;;;;;;-2.29;100.00;100903.16;4483949;31;20089;-72
2024/01/30 02:28:52;;;;;;;17.95;8.43;;;;;;;-2.29;100.00;100905.72;4484193;31;20084;-72
2024/01/30 02:31:20;;;;;;;20.70;9.02;;;;;;;-2.26;100.00;100910.84;4495953;31;20126;-72
2024/01/30 02:33:50;;;;;;;24.83;10.30;;;;;;;-2.28;100.00;100908.28;4499753;31;20110;-72
2024/01/30 02:36:18;;;;;;;23.20;9.32;;;;;;;-2.29;100.00;100898.88;4499473;31;20454;-72
2024/01/30 02:38:46;;;;;;;21.58;9.23;;;;;;;-2.28;100.00;100899.75;4499514;31;20092;-72
2024/01/30 02:41:14;;;;;;;23.30;10.13;;;;;;;-2.37;100.00;100898.88;4499659;31;20096;-72
2024/01/30 02:43:41;;;;;;;24.05;9.75;;;;;;;-2.43;100.00;100898.91;4499613;31;20083;-72
2024/01/30 02:46:11;;;;;;;31.95;9.43;;;;;;;-2.36;100.00;100907.47;4499732;31;20087;-72
2024/01/30 02:48:39;;;;;;;23.50;9.70;;;;;;;-2.37;100.00;100898.88;4499655;31;20118;-72
2024/01/30 02:51:06;;;;;;;24.00;9.68;;;;;;;-2.32;100.00;100907.44;4499428;31;20080;-72
2024/01/30 02:53:33;;;;;;;28.67;10.55;;;;;;;-2.27;100.00;100906.56;4499679;31;20084;-72
2024/01/30 02:56:02;;;;;;;19.87;9.90;;;;;;;-2.27;100.00;100896.31;4499441;31;20118;-72
2024/01/30 02:58:29;;;;;;;26.50;10.55;;;;;;;-2.33;100.00;100898.03;4499507;31;20084;-72
2024/01/30 03:00:57;;;;;;;22.50;9.73;;;;;;;-2.15;100.00;100892.00;4499354;31;20092;-72
2024/01/30 03:03:24;;;;;;;29.90;10.75;;;;;;;-2.08;100.00;100903.09;4499371;31;20116;-72
2024/01/30 03:05:52;;;;;;;21.05;9.32;;;;;;;-1.96;100.00;100900.50;4499552;31;20118;-72
2024/01/30 03:08:21;;;;;;;23.70;9.98;;;;;;;-1.88;100.00;100897.87;4499288;31;20092;-72
2024/01/30 03:10:49;;;;;;;23.65;10.50;;;;;;;-1.88;100.00;100899.62;4499136;31;20088;-72
2024/01/30 03:13:17;;;;;;;23.12;10.13;;;;;;;-1.81;100.00;100903.88;4499409;31;20159;-72
2024/01/30 03:15:44;;;;;;;25.58;10.40;;;;;;;-1.86;100.00;100903.91;4498934;31;20144;-72
2024/01/30 03:18:12;;;;;;;22.25;9.75;;;;;;;-1.83;100.00;100900.47;4497326;31;20104;-72
2024/01/30 03:20:39;;;;;;;26.80;11.38;;;;;;;-1.79;100.00;100900.44;4485360;31;20155;-72
2024/01/30 03:23:06;;;;;;;25.75;10.75;;;;;;;-1.86;100.00;100910.72;4485572;31;20089;-72
2024/01/30 03:25:34;;;;;;;26.27;11.25;;;;;;;-1.92;100.00;100905.63;4485556;31;20097;-72
2024/01/30 03:28:02;;;;;;;27.83;11.00;;;;;;;-1.93;100.00;100901.34;4485533;31;20636;-72
2024/01/30 03:30:30;;;;;;;31.98;11.45;;;;;;;-1.93;100.00;100907.34;4492290;31;20179;-72
2024/01/30 03:32:57;;;;;;;27.48;10.05;;;;;;;-1.97;100.00;100901.37;4501327;31;20160;-72
2024/01/30 03:35:24;;;;;;;31.30;11.05;;;;;;;-1.94;100.00;100903.06;4501015;31;20092;-72
2024/01/30 03:37:52;;;;;;;21.80;9.63;;;;;;;-2.01;100.00;100899.66;4499936;31;20163;-72
2024/01/30 03:40:19;;;;;;;22.83;10.13;;;;;;;-2.10;100.00;100897.13;4500978;31;20110;-72
2024/01/30 03:42:46;;;;;;;24.45;10.02;;;;;;;-2.01;100.00;100897.09;4501118;31;20084;-71
2024/01/30 03:45:14;;;;;;;25.33;9.30;;;;;;;-2.08;100.00;100890.25;4500857;31;20123;-71
2024/01/30 03:47:43;;;;;;;28.90;10.55;;;;;;;-2.06;100.00;100888.56;4501104;31;20100;-71
2024/01/30 03:50:11;;;;;;;25.02;10.95;;;;;;;-2.01;100.00;100891.97;4501156;31;20116;-72
2024/01/30 03:52:38;;;;;;;22.05;9.93;;;;;;;-2.14;100.00;100880.00;4500932;31;20096;-72
2024/01/30 03:55:05;;;;;;;27.08;10.02;;;;;;;-2.17;100.00;100878.28;4501068;31;20115;-72
2024/01/30 03:57:32;;;;;;;22.90;9.85;;;;;;;-2.24;100.00;100880.87;4500978;31;20092;-72
2024/01/30 03:59:59;;;;;;;25.00;10.13;;;;;;;-2.25;100.00;100871.50;4500978;31;20439;-72
2024/01/30 04:02:38;;;;;;;23.52;9.82;;;;;;;-2.22;100.00;100877.47;4500960;31;20155;-72
2024/01/30 04:05:07;;;;;;;25.77;9.15;;;;;;;-2.17;100.00;100885.16;4500925;31;20509;-72
2024/01/30 04:07:34;;;;;;;21.25;9.20;;;;;;;-2.32;100.00;100878.34;4501266;31;20088;-72
2024/01/30 04:10:04;;;;;;;20.40;8.52;;;;;;;-2.33;100.00;100879.22;4501109;31;20176;-72
2024/01/30 04:12:32;;;;;;;25.30;9.88;;;;;;;-2.41;100.00;100884.34;4501072;31;20235;-72
2024/01/30 04:14:59;;;;;;;24.27;10.55;;;;;;;-2.49;100.00;100878.38;4501053;31;20096;-72
2024/01/30 04:17:28;;;;;;;26.17;10.05;;;;;;;-2.51;100.00;100880.09;4501034;31;20092;-71
2024/01/30 04:19:56;;;;;;;23.98;10.93;;;;;;;-2.47;100.00;100874.09;4487322;31;20157;-72
2024/01/30 04:22:24;;;;;;;28.58;9.40;;;;;;;-2.52;100.00;100873.25;4484922;31;20167;-72
2024/01/30 04:24:51;;;;;;;21.87;8.95;;;;;;;-2.40;100.00;100867.25;4485100;31;20089;-72
2024/01/30 04:27:18;;;;;;;22.70;9.98;;;;;;;-2.47;100.00;100873.25;4485058;31;20093;-72
2024/01/30 04:29:46;;;;;;;20.50;10.05;;;;;;;-2.40;100.00;100872.38;4485930;31;20084;-72
2024/01/30 04:32:13;;;;;;;23.75;8.55;;;;;;;-2.40;100.00;100872.38;4500732;31;20096;-72
2024/01/30 04:34:42;;;;;;;20.08;9.50;;;;;;;-2.40;100.00;100873.22;4500661;31;20096;-72
2024/01/30 04:37:09;;;;;;;27.23;9.73;;;;;;;-2.35;100.00;100870.66;4500738;31;20103;-72
2024/01/30 04:39:37;;;;;;;23.67;9.77;;;;;;;-2.43;100.00;100875.81;4500825;31;20100;-72
2024/01/30 04:42:05;;;;;;;19.48;9.30;;;;;;;-2.46;100.00;100877.53;4500643;31;20096;-72
2024/01/30 04:44:35;;;;;;;24.75;9.80;;;;;;;-2.48;100.00;100880.09;4500937;31;20106;-72
2024/01/30 04:47:05;;;;;;;22.00;9.23;;;;;;;-2.50;100.00;100880.09;4500742;31;20493;-71
2024/01/30 04:49:33;;;;;;;21.80;9.60;;;;;;;-2.53;100.00;100884.37;4500828;31;20205;-72
2024/01/30 04:52:00;;;;;;;22.90;9.80;;;;;;;-2.53;100.00;100882.69;4500618;31;20588;-72
2024/01/30 04:54:30;;;;;;;25.35;9.98;;;;;;;-2.58;100.00;100886.94;4500621;31;20144;-72
2024/01/30 04:57:00;;;;;;;32.70;11.12;;;;;;;-2.68;100.00;100893.81;4500641;31;20123;-72
2024/01/30 04:59:28;;;;;;;25.80;10.18;;;;;;;-2.68;100.00;100893.81;4500685;31;20442;-72
2024/01/30 05:01:55;;;;;;;25.20;10.65;;;;;;;-2.72;100.00;100892.09;4500351;31;20088;-72
2024/01/30 05:04:23;;;;;;;25.37;11.48;;;;;;;-2.70;100.00;100894.66;4500165;31;20104;-71
2024/01/30 05:06:51;;;;;;;24.92;10.63;;;;;;;-2.65;100.00;100895.50;4500645;31;20110;-72
2024/01/30 05:09:18;;;;;;;35.40;13.43;;;;;;;-2.69;100.00;100898.94;4500671;31;20575;-71
2024/01/30 05:11:46;;;;;;;33.60;13.25;;;;;;;-2.72;100.00;100896.38;4500536;31;20110;-71
2024/01/30 05:14:14;;;;;;;24.48;11.60;;;;;;;-2.72;100.00;100902.34;4500740;31;20107;-71
2024/01/30 05:16:46;;;;;;;22.55;10.70;;;;;;;-2.73;100.00;100905.75;4500417;31;20140;-71
2024/01/30 05:19:14;;;;;;;25.55;10.88;;;;;;;-2.69;100.00;100906.62;4491606;31;20406;-71
2024/01/30 05:21:42;;;;;;;26.12;11.12;;;;;;;-2.73;100.00;100902.34;4484606;31;20136;-71
2024/01/30 05:24:10;;;;;;;26.85;11.77;;;;;;;-2.72;100.00;100906.62;4484398;31;20096;-71
2024/01/30 05:26:37;;;;;;;25.95;10.60;;;;;;;-2.76;100.00;100910.88;4499194;31;20465;-71
2024/01/30 05:29:07;;;;;;;28.83;12.15;;;;;;;-2.72;100.00;100906.62;4492280;31;20265;-71
2024/01/30 05:31:34;;;;;;;30.62;13.05;;;;;;;-2.84;100.00;100917.75;4499235;31;20135;-71
2024/01/30 05:34:02;;;;;;;26.45;12.50;;;;;;;-2.81;100.00;100916.91;4495809;31;20161;-72
2024/01/30 05:36:29;;;;;;;24.58;11.40;;;;;;;-2.82;100.00;100920.31;4490295;31;20559;-71
2024/01/30 05:38:57;;;;;;;29.08;12.15;;;;;;;-2.82;100.00;100921.16;4492688;31;20091;-71
2024/01/30 05:41:25;;;;;;;31.50;12.52;;;;;;;-2.84;100.00;100911.78;4491499;31;20118;-71
2024/01/30 05:43:53;;;;;;;29.15;12.55;;;;;;;-2.84;100.00;100922.88;4494240;31;20430;-71
2024/01/30 05:46:22;;;;;;;23.80;11.60;;;;;;;-2.84;100.00;100914.34;4492672;31;20378;-71
2024/01/30 05:48:52;;;;;;;27.92;11.57;;;;;;;-2.72;100.00;100920.31;4490601;31;20092;-71
2024/01/30 05:51:19;;;;;;;26.08;11.15;;;;;;;-2.73;100.00;100928.00;4491628;31;20100;-71
2024/01/30 05:53:47;;;;;;;27.83;10.77;;;;;;;-2.80;100.00;100923.72;4490783;31;20484;-71
2024/01/30 05:56:15;;;;;;;30.77;12.60;;;;;;;-2.83;100.00;100919.47;4489499;31;20127;-72
2024/01/30 05:58:43;;;;;;;28.00;10.43;;;;;;;-2.87;100.00;100921.16;4491283;31;20115;-71
2024/01/30 06:01:10;;;;;;;24.45;11.32;;;;;;;-2.95;100.00;100920.31;4491994;31;20095;-71
2024/01/30 06:03:38;;;;;;;30.65;11.45;;;;;;;-2.99;100.00;100921.16;4489535;31;20104;-71
2024/01/30 06:06:06;;;;;;;28.05;11.73;;;;;;;-3.01;100.00;100920.31;4492153;31;20088;-72
2024/01/30 06:08:36;;;;;;;29.67;12.68;;;;;;;-3.03;100.00;100917.72;4489376;31;20160;-71
2024/01/30 06:11:04;;;;;;;26.15;11.55;;;;;;;-3.04;100.00;100918.56;4489375;31;20552;-71
2024/01/30 06:13:34;;;;;;;32.55;12.52;;;;;;;-3.07;100.00;100920.28;4489915;31;20435;-71
2024/01/30 06:16:01;;;;;;;32.65;12.40;;;;;;;-3.08;100.00;100924.53;4494104;31;20239;-71
2024/01/30 06:18:30;;;;;;;30.98;14.45;;;;;;;-3.01;100.00;100920.31;4496214;31;20118;-71
2024/01/30 06:20:58;;;;;;;29.05;12.65;;;;;;;-2.94;100.00;100922.00;4492554;31;20092;-72
2024/01/30 06:23:25;;;;;;;33.47;12.98;;;;;;;-2.97;100.00;100923.72;4490837;31;20156;-71
2024/01/30 06:25:52;;;;;;;30.17;12.32;;;;;;;-2.93;100.00;100922.88;4491492;31;20091;-71
2024/01/30 06:28:20;;;;;;;32.50;11.57;;;;;;;-2.96;100.00;100922.88;4494983;31;20505;-71
2024/01/30 06:30:47;;;;;;;30.35;11.20;;;;;;;-2.97;100.00;100926.28;4493757;31;20602;-71
2024/01/30 06:33:17;;;;;;;41.15;13.40;;;;;;;-2.92;100.00;100922.00;4490811;31;20084;-70
2024/01/30 06:35:46;;;;;;;29.05;12.55;;;;;;;-2.94;100.00;100929.69;4487905;31;75118;-72
2024/01/30 06:38:15;;;;;;;31.45;11.43;;;;;;;-2.94;100.00;100929.69;4491938;31;20096;-72
2024/01/30 06:40:44;;;;;;;27.60;11.82;;;;;;;-2.92;100.00;100934.81;4486684;31;20710;-71
2024/01/30 06:43:13;;;;;;;35.17;13.05;;;;;;;-2.86;100.00;100934.84;4496056;31;20092;-72
2024/01/30 06:45:42;;;;;;;34.58;10.77;;;;;;;-2.84;100.00;100937.41;4490192;31;20108;-72
2024/01/30 06:48:11;;;;;;;29.90;10.65;;;;;;;-2.76;100.00;100930.56;4493089;31;20104;-71
2024/01/30 06:50:40;;;;;;;30.58;12.43;;;;;;;-2.71;100.00;100937.41;4492559;31;20096;-72
2024/01/30 06:53:07;;;;;;;28.12;11.90;;;;;;;-2.60;100.00;100929.72;4494770;31;20109;-71
2024/01/30 06:55:46;;;;;;;32.03;11.38;;;;;;;-2.45;100.00;100934.00;4493858;31;20095;-71
2024/01/30 06:58:13;;;;;;;32.15;12.27;;;;;;;-2.35;100.00;100937.38;4492378;31;20127;-72
2024/01/30 07:00:41;;;;;;;29.73;12.43;;;;;;;-2.34;100.00;100937.38;4492971;31;20795;-73
2024/01/30 07:03:09;;;;;;;32.55;13.20;;;;;;;-2.26;100.00;100939.94;4493211;31;20517;-73
2024/01/30 07:05:39;;;;;;;30.58;13.02;;;;;;;-2.10;100.00;100942.50;4492482;31;20096;-72
2024/01/30 07:08:07;;;;;;;35.30;13.60;;;;;;;-1.96;100.00;100933.88;4494881;31;20168;-71
2024/01/30 07:10:35;;;;;;;33.17;12.60;;;;;;;-1.92;100.00;100936.44;4489586;31;20448;-73
2024/01/30 07:13:05;;;;;;;31.48;13.25;;;;;;;-1.74;100.00;100936.41;4492276;31;20104;-73
2024/01/30 07:15:32;;;;;;;34.35;13.65;;;;;;;-1.70;100.00;100932.94;4497899;31;20098;-72
2024/01/30 07:18:00;;;;;;;29.02;13.20;;;;;;;-1.65;100.00;100946.63;4495510;31;20118;-73
2024/01/30 07:20:30;;;;;;;29.33;13.48;;;;;;;-1.64;100.00;100945.75;4496110;31;20100;-74
2024/01/30 07:22:58;;;;;;;27.80;13.55;;;;;;;-1.64;100.00;100943.19;4498184;31;20115;-73
2024/01/30 07:25:29;;;;;;;39.03;13.18;;;;;;;-1.55;100.00;100941.47;4498621;31;20137;-72
2024/01/30 07:27:59;;;;;;;28.83;12.90;;;;;;;-1.49;100.00;100942.28;4494835;31;20453;-73
2024/01/30 07:30:26;;;;;;;27.83;12.13;;;;;;;-1.31;100.00;100935.34;4498266;31;20096;-72
2024/01/30 07:32:53;;;;;;;34.80;13.32;;;;;;;-1.26;100.00;100937.03;4498525;31;20163;-71
2024/01/30 07:35:23;;;;;;;35.47;12.02;;;;;;;-1.23;100.00;100932.72;4500431;31;20152;-72
2024/01/30 07:37:50;;;;;;;32.05;13.75;;;;;;;-1.08;100.00;100936.03;4496496;31;20130;-71
2024/01/30 07:40:18;;;;;;;32.88;12.00;;;;;;;-1.04;100.00;100931.75;4498205;31;20469;-72
2024/01/30 07:42:48;;;;;;;29.33;12.00;;;;;;;-0.96;100.00;100931.69;4495748;31;20166;-71
2024/01/30 07:45:16;;;;;;;27.35;11.82;;;;;;;-0.86;100.00;100937.63;4496824;31;20099;-71
2024/01/30 07:47:42;;;;;;;26.55;11.77;;;;;;;-0.79;100.00;100929.00;4492746;31;20195;-71
2024/01/30 07:50:10;;;;;;;28.33;11.45;;;;;;;-0.64;100.00;100923.72;4496715;31;20108;-70
2024/01/30 07:52:43;;;;;;;27.55;11.15;;;;;;;-0.62;100.00;100927.16;4495446;31;20126;-70
2024/01/30 07:58:15;;;;;;;26.47;10.47;;;;;;;-0.49;100.00;100927.03;4497046;31;20127;-71
2024/01/30 08:00:42;;;;;;;26.60;11.88;;;;;;;-0.31;100.00;100926.88;4490442;31;20154;-71
2024/01/30 08:03:12;;;;;;;25.45;11.23;;;;;;;-0.19;100.00;100928.47;4496378;31;20105;-71
2024/01/30 08:05:39;;;;;;;33.65;11.05;;;;;;;-0.29;100.00;100935.41;4492150;31;20093;-71
2024/01/30 08:08:07;;;;;;;29.83;12.10;;;;;;;-0.18;100.00;100932.75;4492346;31;20503;-71
2024/01/30 08:10:34;;;;;;;27.27;11.30;;;;;;;-0.01;100.00;100928.28;4492596;31;20151;-72
2024/01/30 08:13:02;;;;;;;29.02;11.95;;;;;;;0.01;100.00;100927.41;4502504;31;20469;-72
2024/01/30 08:15:30;;;;;;;26.58;11.45;;;;;;;-0.05;100.00;100931.75;4503780;31;20104;-71
2024/01/30 08:17:58;;;;;;;30.65;12.57;;;;;;;0.14;100.00;100936.72;4494427;31;20076;-71
2024/01/30 08:20:25;;;;;;;28.05;12.00;;;;;;;0.27;100.00;100942.56;4495255;31;20104;-72
2024/01/30 08:22:53;;;;;;;24.77;11.25;;;;;;;0.33;100.00;100940.78;4499077;31;20148;-71
2024/01/30 08:25:23;;;;;;;32.88;12.60;;;;;;;0.44;100.00;100938.06;4496823;31;20284;-71
2024/01/30 08:27:51;;;;;;;31.70;12.15;;;;;;;0.35;100.00;100943.34;4493276;31;20171;-71
2024/01/30 08:30:19;;;;;;;36.67;13.20;;;;;;;0.17;100.00;100940.09;4499537;31;20525;-71
2024/01/30 08:32:47;;;;;;;30.48;11.90;;;;;;;0.45;100.00;100942.34;4496647;31;20187;-71
2024/01/30 08:35:16;;;;;;;25.17;10.80;;;;;;;0.57;100.00;100950.81;4497185;31;20119;-71
2024/01/30 08:37:43;;;;;;;33.20;13.25;;;;;;;0.41;100.00;100955.28;4494798;31;20096;-71
2024/01/30 08:40:11;;;;;;;37.95;13.27;;;;;;;0.38;100.00;100963.06;4492850;31;20462;-71
2024/01/30 08:42:40;;;;;;;29.92;12.48;;;;;;;0.28;100.00;100963.19;4494815;31;20088;-71
2024/01/30 08:45:09;;;;;;;34.78;12.37;;;;;;;0.45;100.00;100955.22;4493746;31;20099;-71
2024/01/30 08:47:37;;;;;;;29.77;12.45;;;;;;;0.55;100.00;100956.00;4495359;31;20126;-71
2024/01/30 08:50:04;;;;;;;33.72;13.15;;;;;;;0.86;100.00;100960.72;4494931;31;20088;-70
2024/01/30 08:52:34;;;;;;;31.12;13.02;;;;;;;0.72;100.00;100963.50;4496610;31;20402;-70
2024/01/30 08:55:01;;;;;;;30.90;12.65;;;;;;;0.58;100.00;100955.09;4494087;31;20108;-72
2024/01/30 08:57:29;;;;;;;27.35;11.85;;;;;;;0.70;100.00;100958.34;4493702;31;20163;-72
2024/01/30 08:59:59;;;;;;;33.60;14.10;;;;;;;0.80;100.00;100953.94;4494003;31;20104;-70
2024/01/30 09:02:26;;;;;;;35.78;13.32;;;;;;;0.78;100.00;100953.09;4494421;31;20493;-71
2024/01/30 09:04:54;;;;;;;29.23;13.23;;;;;;;0.71;100.00;100951.47;4492040;31;20470;-72
2024/01/30 09:07:24;;;;;;;26.62;12.73;;;;;;;0.64;100.00;100950.72;4492465;31;20454;-72
2024/01/30 09:09:53;;;;;;;32.72;13.70;;;;;;;0.78;100.00;100953.09;4487425;31;20131;-72
2024/01/30 09:12:20;;;;;;;33.47;12.98;;;;;;;0.70;100.00;100949.78;4495283;31;20355;-72
2024/01/30 09:14:48;;;;;;;28.42;11.52;;;;;;;0.86;100.00;100951.28;4493893;31;20544;-70
2024/01/30 09:17:18;;;;;;;25.77;11.65;;;;;;;1.14;100.00;100953.44;4489488;31;20787;-72
2024/01/30 09:19:46;;;;;;;30.23;12.73;;;;;;;1.38;100.00;100951.38;4495523;31;20088;-72
2024/01/30 09:22:15;;;;;;;30.02;12.65;;;;;;;1.50;100.00;100953.75;4496876;31;20882;-72
2024/01/30 09:24:42;;;;;;;25.75;12.05;;;;;;;1.62;100.00;100957.00;4497924;31;20096;-74
2024/01/30 09:27:12;;;;;;;26.52;12.63;;;;;;;1.78;100.00;100950.69;4496366;31;20159;-73
2024/01/30 09:29:41;;;;;;;30.27;12.48;;;;;;;1.91;100.00;100956.50;4496787;31;20503;-74
2024/01/30 09:32:10;;;;;;;34.03;11.73;;;;;;;2.03;100.00;100955.41;4494645;31;20171;-74
2024/01/30 09:34:39;;;;;;;23.85;11.12;;;;;;;1.99;100.00;100949.44;4493830;31;20453;-73
2024/01/30 09:37:07;;;;;;;28.58;11.93;;;;;;;2.20;100.00;100944.75;4496110;31;20136;-73
2024/01/30 09:39:36;;;;;;;27.75;11.98;;;;;;;1.95;100.00;100951.25;4494665;31;20092;-74
2024/01/30 09:42:34;;;;;;;29.65;11.73;;;;;;;2.16;100.00;100948.28;4488045;31;20107;-74
2024/01/30 09:45:03;;;;;;;27.98;11.27;;;;;;;2.24;100.00;100952.41;4490696;31;20232;-74
2024/01/30 09:47:32;;;;;;;30.60;12.15;;;;;;;2.37;100.00;100952.16;4488031;31;20088;-74
2024/01/30 09:50:01;;;;;;;23.30;10.50;;;;;;;2.55;100.00;100956.13;4486197;31;20580;-74
2024/01/30 09:52:29;;;;;;;25.70;10.70;;;;;;;2.74;100.00;100956.56;4491992;31;20099;-75
2024/01/30 09:54:59;;;;;;;29.05;11.68;;;;;;;2.74;100.00;100951.38;4494929;31;20100;-75
2024/01/30 09:57:27;;;;;;;31.10;13.48;;;;;;;2.83;100.00;100946.88;4485790;31;20113;-76
2024/01/30 09:59:54;;;;;;;28.80;12.55;;;;;;;2.98;100.00;100952.56;4492600;31;21887;-75
2024/01/30 10:02:22;;;;;;;27.62;11.68;;;;;;;3.05;100.00;100954.16;4490294;31;20107;-76
2024/01/30 10:04:51;;;;;;;27.67;12.90;;;;;;;3.10;100.00;100954.03;4489696;31;20274;-75
2024/01/30 10:07:19;;;;;;;31.75;13.00;;;;;;;3.00;100.00;100956.84;4485972;31;20100;-75
2024/01/30 10:09:46;;;;;;;27.65;11.02;;;;;;;3.03;100.00;100948.16;4487700;31;20524;-75
2024/01/30 10:12:15;;;;;;;27.83;11.70;;;;;;;3.19;100.00;100959.00;4489378;31;20117;-75
2024/01/30 10:14:44;;;;;;;28.58;12.77;;;;;;;3.40;100.00;100962.81;4488935;31;20092;-75
2024/01/30 10:17:12;;;;;;;21.30;10.68;;;;;;;3.61;100.00;100958.03;4488177;31;20092;-76
2024/01/30 10:19:56;;;;;;;;;;;;;;;3.48;100.00;100962.63;4489298;31;20122;-74
2024/01/30 10:22:23;;;;;;;29.05;13.10;;;;;;;3.67;100.00;100950.91;4495113;31;20359;-75
2024/01/30 10:24:50;;;;;;;33.17;14.32;;;;;;;3.31;100.00;100940.56;4486277;31;20104;-76
2024/01/30 10:27:25;;;;;;;27.85;12.32;;;;;;;3.33;100.00;100950.91;4485663;31;20461;-75
2024/01/30 10:29:52;;;;;;;29.27;13.85;;;;;;;3.27;100.00;100946.75;4497670;31;20114;-75
2024/01/30 10:32:20;;;;;;;30.77;11.73;;;;;;;3.13;100.00;100946.19;4494644;31;20104;-75
2024/01/30 10:34:49;;;;;;;30.70;14.25;;;;;;;3.06;100.00;100944.63;4492590;31;20096;-75
2024/01/30 10:37:21;;;;;;;29.40;14.07;;;;;;;2.72;100.00;100948.00;4487422;31;20488;-75
2024/01/30 10:39:50;;;;;;;36.13;14.27;;;;;;;2.91;100.00;100940.69;4489722;31;20111;-75
2024/01/30 10:42:18;;;;;;;39.75;16.00;;;;;;;2.80;100.00;100940.91;4496814;31;20491;-74
2024/01/30 10:45:15;;;;;;;30.88;13.93;;;;;;;2.27;100.00;100936.84;4495212;31;20108;-74
2024/01/30 10:47:49;;;;;;;32.72;15.15;;;;;;;2.32;100.00;100934.16;4488255;31;20145;-73
2024/01/30 10:50:17;;;;;;;28.85;14.98;;;;;;;2.63;100.00;100934.38;4497323;31;20136;-75
2024/01/30 10:52:44;;;;;;;29.27;13.07;;;;;;;2.67;100.00;100930.81;4498003;31;20850;-76
2024/01/30 10:55:13;;;;;;;35.55;15.57;;;;;;;2.79;100.00;100913.34;4496878;31;20157;-77
2024/01/30 10:57:41;;;;;;;39.25;16.17;;;;;;;2.98;100.00;100918.91;4490243;31;20100;-77
2024/01/30 11:00:10;;;;;;;29.80;13.95;;;;;;;2.71;100.00;100920.41;4494121;31;20265;-77
2024/01/30 11:02:43;;;;;;;33.53;15.02;;;;;;;2.77;100.00;100915.97;4491203;31;20088;-79
2024/01/30 11:05:11;;;;;;;38.10;15.68;;;;;;;2.86;100.00;100908.84;4489207;31;20131;-76
2024/01/30 11:07:42;;;;;;;36.63;15.32;;;;;;;2.64;100.00;100906.75;4493023;31;20144;-75
2024/01/30 11:10:14;;;;;;;41.05;17.10;;;;;;;2.98;100.00;100903.38;4492880;31;20098;-77
2024/01/30 11:12:43;;;;;;;37.83;16.60;;;;;;;3.19;100.00;100897.72;4493417;31;20088;-74
2024/01/30 11:15:19;;;;;;;30.50;15.32;;;;;;;3.36;100.00;100894.69;4488528;31;20112;-77